KTUP/TUP METAR and TAF weather

Enter ICAO airport designator
Station Type Date Time Source
KTUP METAR 2020/12/05 04:53 UTC NOAA

KTUP 050453Z AUTO 00000KT 10SM CLR 02/01 A3018 RMK AO2 SLP221 T00220011


Station Type Date Time Source
KTUP Decoded METAR 2020/12/05 04:53 UTC NOAA

TUPELO REGIONAL AIRPORT, MS, United States (KTUP) 34-16N 88-46W 105M
Dec 04, 2020 - 11:53 PM EST / 2020.12.05 0453 UTC
Wind: Calm:0
Visibility: 10 mile(s):0
Sky conditions: clear
Temperature: 36.0 F (2.2 C)
Dew Point: 34.0 F (1.1 C)
Relative Humidity: 92%
Pressure (altimeter): 30.18 in. Hg (1022 hPa)
ob: KTUP 050453Z AUTO 00000KT 10SM CLR 02/01 A3018 RMK AO2 SLP221 T00220011
cycle: 5

Station Type Date Time Source
KTUP TAF 2020/12/05 06:22 UTC NOAA

TAF KTUP 050520Z 0506/0606 VRB03KT P6SM SKC
TEMPO 0509/0513 5SM BR
FM051500 29005KT P6SM SKC
FM060000 00000KT P6SM FEW250

Example: see airport list